Terrell, North Carolina
Current Conditions -  °F | °C
As of 6:15 PM on Friday 31 Oct 2014 (Local Time) from KSVH Reporting Station
Overcast Overcast  
Wind Chill: 54°   Ceiling: 9000
Heat Index: 54°   Visibility: 10mi
Dew Point: 45°   Wind: 0mph
Humidity: 72%   Direction: NA
Pressure: 29.79"   Gusts: NA
Location:  35.59°N, 80.98°W
Report Text: KSVH 312215Z AUTO 00000KT 10SM OVC090 12/07 A2979 RMK AO2 T01200070
Loading
Personal Weather Stations






























Interactive Weather Map
Tropical Storm Tracking
New forecast layout! Learn more

10-Day Weather Forecast

Advertisements
Track Severe Weather on mobile